sensor_id;sensor_type;location;lat;lon;timestamp;P1;durP1;ratioP1;P2;durP2;ratioP2
60032;SDS011;45905;50.570;10.428;2022-10-22T00:00:43;8.27;;;4.20;;
60032;SDS011;45905;50.570;10.428;2022-10-22T00:03:10;16.10;;;5.97;;
60032;SDS011;45905;50.570;10.428;2022-10-22T00:05:37;7.30;;;5.13;;
60032;SDS011;45905;50.570;10.428;2022-10-22T00:08:04;7.83;;;4.60;;
60032;SDS011;45905;50.570;10.428;2022-10-22T00:10:31;7.83;;;5.10;;
60032;SDS011;45905;50.570;10.428;2022-10-22T00:12:58;8.93;;;5.40;;
60032;SDS011;45905;50.570;10.428;2022-10-22T00:15:26;10.40;;;6.17;;
60032;SDS011;45905;50.570;10.428;2022-10-22T00:17:53;10.97;;;5.90;;
60032;SDS011;45905;50.570;10.428;2022-10-22T00:20:20;11.40;;;6.40;;
60032;SDS011;45905;50.570;10.428;2022-10-22T00:22:48;12.13;;;5.77;;
60032;SDS011;45905;50.570;10.428;2022-10-22T00:25:18;10.23;;;5.47;;
60032;SDS011;45905;50.570;10.428;2022-10-22T00:27:45;26.23;;;6.40;;
60032;SDS011;45905;50.570;10.428;2022-10-22T00:30:12;9.83;;;6.03;;
60032;SDS011;45905;50.570;10.428;2022-10-22T00:32:39;16.90;;;6.80;;
60032;SDS011;45905;50.570;10.428;2022-10-22T00:35:07;12.67;;;5.67;;
60032;SDS011;45905;50.570;10.428;2022-10-22T00:37:34;8.13;;;5.40;;
60032;SDS011;45905;50.570;10.428;2022-10-22T00:40:02;7.70;;;5.60;;
60032;SDS011;45905;50.570;10.428;2022-10-22T00:42:30;12.17;;;6.27;;
60032;SDS011;45905;50.570;10.428;2022-10-22T00:45:05;9.07;;;5.57;;
60032;SDS011;45905;50.570;10.428;2022-10-22T00:47:38;10.40;;;6.40;;
60032;SDS011;45905;50.570;10.428;2022-10-22T00:53:15;14.00;;;5.73;;
60032;SDS011;45905;50.570;10.428;2022-10-22T00:55:48;11.23;;;6.33;;
60032;SDS011;45905;50.570;10.428;2022-10-22T00:58:21;7.20;;;5.00;;
60032;SDS011;45905;50.570;10.428;2022-10-22T01:00:52;10.43;;;5.67;;
60032;SDS011;45905;50.570;10.428;2022-10-22T01:03:21;9.60;;;5.10;;
60032;SDS011;45905;50.570;10.428;2022-10-22T01:08:35;11.00;;;5.90;;
60032;SDS011;45905;50.570;10.428;2022-10-22T01:14:51;11.27;;;5.93;;
60032;SDS011;45905;50.570;10.428;2022-10-22T01:18:06;16.83;;;7.00;;
60032;SDS011;45905;50.570;10.428;2022-10-22T01:21:06;13.77;;;6.23;;
60032;SDS011;45905;50.570;10.428;2022-10-22T01:29:51;10.90;;;5.90;;
60032;SDS011;45905;50.570;10.428;2022-10-22T01:32:28;14.60;;;5.73;;
60032;SDS011;45905;50.570;10.428;2022-10-22T01:35:03;9.73;;;5.77;;
60032;SDS011;45905;50.570;10.428;2022-10-22T01:37:38;16.83;;;7.63;;
60032;SDS011;45905;50.570;10.428;2022-10-22T01:40:13;12.57;;;7.57;;
60032;SDS011;45905;50.570;10.428;2022-10-22T01:42:42;10.80;;;6.23;;
60032;SDS011;45905;50.570;10.428;2022-10-22T01:45:22;10.07;;;5.87;;
60032;SDS011;45905;50.570;10.428;2022-10-22T01:47:54;12.40;;;6.77;;
60032;SDS011;45905;50.570;10.428;2022-10-22T01:59:18;8.13;;;5.03;;
60032;SDS011;45905;50.570;10.428;2022-10-22T02:02:03;7.53;;;4.93;;
60032;SDS011;45905;50.570;10.428;2022-10-22T02:07:58;11.17;;;4.60;;
60032;SDS011;45905;50.570;10.428;2022-10-22T02:10:36;17.53;;;6.50;;
60032;SDS011;45905;50.570;10.428;2022-10-22T02:13:07;12.20;;;6.90;;
60032;SDS011;45905;50.570;10.428;2022-10-22T02:15:39;10.30;;;6.17;;
60032;SDS011;45905;50.570;10.428;2022-10-22T02:18:11;11.37;;;5.90;;
60032;SDS011;45905;50.570;10.428;2022-10-22T02:20:41;10.73;;;6.43;;
60032;SDS011;45905;50.570;10.428;2022-10-22T02:23:08;9.47;;;4.83;;
60032;SDS011;45905;50.570;10.428;2022-10-22T02:25:37;16.60;;;7.83;;
60032;SDS011;45905;50.570;10.428;2022-10-22T02:28:21;12.27;;;6.27;;
60032;SDS011;45905;50.570;10.428;2022-10-22T02:30:59;11.87;;;5.77;;
60032;SDS011;45905;50.570;10.428;2022-10-22T02:33:41;9.60;;;5.60;;
60032;SDS011;45905;50.570;10.428;2022-10-22T02:36:14;13.93;;;7.13;;
60032;SDS011;45905;50.570;10.428;2022-10-22T02:38:42;13.10;;;7.13;;
60032;SDS011;45905;50.570;10.428;2022-10-22T02:41:14;17.00;;;6.30;;
60032;SDS011;45905;50.570;10.428;2022-10-22T02:43:44;10.97;;;6.90;;
60032;SDS011;45905;50.570;10.428;2022-10-22T02:46:18;11.20;;;6.50;;
60032;SDS011;45905;50.570;10.428;2022-10-22T02:48:46;10.23;;;5.10;;
60032;SDS011;45905;50.570;10.428;2022-10-22T02:51:14;13.63;;;6.80;;
60032;SDS011;45905;50.570;10.428;2022-10-22T02:53:41;8.60;;;6.07;;
60032;SDS011;45905;50.570;10.428;2022-10-22T02:56:08;14.50;;;6.37;;
60032;SDS011;45905;50.570;10.428;2022-10-22T02:58:36;10.03;;;6.60;;
60032;SDS011;45905;50.570;10.428;2022-10-22T03:01:03;14.00;;;6.27;;
60032;SDS011;45905;50.570;10.428;2022-10-22T03:03:31;17.37;;;6.20;;
60032;SDS011;45905;50.570;10.428;2022-10-22T03:05:58;13.27;;;6.23;;
60032;SDS011;45905;50.570;10.428;2022-10-22T03:08:25;14.20;;;8.17;;
60032;SDS011;45905;50.570;10.428;2022-10-22T03:10:52;16.30;;;5.80;;
60032;SDS011;45905;50.570;10.428;2022-10-22T03:13:19;10.40;;;4.97;;
60032;SDS011;45905;50.570;10.428;2022-10-22T03:15:49;7.57;;;4.53;;
60032;SDS011;45905;50.570;10.428;2022-10-22T03:18:17;8.80;;;4.80;;
60032;SDS011;45905;50.570;10.428;2022-10-22T03:20:44;3.97;;;2.00;;
60032;SDS011;45905;50.570;10.428;2022-10-22T03:23:12;2.70;;;2.20;;
60032;SDS011;45905;50.570;10.428;2022-10-22T03:25:42;4.00;;;2.50;;
60032;SDS011;45905;50.570;10.428;2022-10-22T03:28:14;3.87;;;2.53;;
60032;SDS011;45905;50.570;10.428;2022-10-22T03:30:43;5.03;;;3.07;;
60032;SDS011;45905;50.570;10.428;2022-10-22T03:33:10;3.07;;;2.30;;
60032;SDS011;45905;50.570;10.428;2022-10-22T03:35:39;5.90;;;3.17;;
60032;SDS011;45905;50.570;10.428;2022-10-22T03:38:10;3.50;;;2.13;;
60032;SDS011;45905;50.570;10.428;2022-10-22T03:40:40;4.63;;;2.33;;
60032;SDS011;45905;50.570;10.428;2022-10-22T03:43:09;8.60;;;3.03;;
60032;SDS011;45905;50.570;10.428;2022-10-22T03:45:37;4.87;;;2.73;;
60032;SDS011;45905;50.570;10.428;2022-10-22T03:48:09;5.50;;;2.90;;
60032;SDS011;45905;50.570;10.428;2022-10-22T03:50:36;4.23;;;3.40;;
60032;SDS011;45905;50.570;10.428;2022-10-22T03:53:03;8.03;;;3.30;;
60032;SDS011;45905;50.570;10.428;2022-10-22T03:55:30;5.37;;;2.77;;
60032;SDS011;45905;50.570;10.428;2022-10-22T03:57:57;2.80;;;1.97;;
60032;SDS011;45905;50.570;10.428;2022-10-22T04:00:24;5.10;;;2.27;;
60032;SDS011;45905;50.570;10.428;2022-10-22T04:02:51;3.17;;;2.10;;
60032;SDS011;45905;50.570;10.428;2022-10-22T04:05:18;8.20;;;2.40;;
60032;SDS011;45905;50.570;10.428;2022-10-22T04:07:45;3.33;;;2.50;;
60032;SDS011;45905;50.570;10.428;2022-10-22T04:10:12;3.50;;;2.30;;
60032;SDS011;45905;50.570;10.428;2022-10-22T04:12:39;6.50;;;2.63;;
60032;SDS011;45905;50.570;10.428;2022-10-22T04:15:07;11.90;;;5.43;;
60032;SDS011;45905;50.570;10.428;2022-10-22T04:17:35;7.10;;;2.57;;
60032;SDS011;45905;50.570;10.428;2022-10-22T04:20:03;2.57;;;2.07;;
60032;SDS011;45905;50.570;10.428;2022-10-22T04:22:32;3.90;;;2.00;;
60032;SDS011;45905;50.570;10.428;2022-10-22T04:25:00;2.60;;;2.00;;
60032;SDS011;45905;50.570;10.428;2022-10-22T04:27:32;3.60;;;1.53;;
60032;SDS011;45905;50.570;10.428;2022-10-22T04:30:00;2.63;;;1.73;;
60032;SDS011;45905;50.570;10.428;2022-10-22T04:32:29;2.30;;;1.60;;
60032;SDS011;45905;50.570;10.428;2022-10-22T04:34:56;2.13;;;1.53;;
60032;SDS011;45905;50.570;10.428;2022-10-22T04:37:23;1.90;;;1.47;;
60032;SDS011;45905;50.570;10.428;2022-10-22T04:39:50;11.43;;;2.43;;
60032;SDS011;45905;50.570;10.428;2022-10-22T04:42:17;1.90;;;1.63;;
60032;SDS011;45905;50.570;10.428;2022-10-22T04:44:44;3.60;;;1.30;;
60032;SDS011;45905;50.570;10.428;2022-10-22T04:47:12;3.03;;;1.60;;
60032;SDS011;45905;50.570;10.428;2022-10-22T04:49:39;3.30;;;2.10;;
60032;SDS011;45905;50.570;10.428;2022-10-22T04:52:06;2.40;;;1.90;;
60032;SDS011;45905;50.570;10.428;2022-10-22T04:54:33;1.57;;;1.40;;
60032;SDS011;45905;50.570;10.428;2022-10-22T04:57:00;6.83;;;1.80;;
60032;SDS011;45905;50.570;10.428;2022-10-22T04:59:27;2.10;;;1.50;;
60032;SDS011;45905;50.570;10.428;2022-10-22T05:01:54;13.93;;;1.20;;
60032;SDS011;45905;50.570;10.428;2022-10-22T05:04:21;2.20;;;1.60;;
60032;SDS011;45905;50.570;10.428;2022-10-22T05:06:48;2.00;;;1.53;;
60032;SDS011;45905;50.570;10.428;2022-10-22T05:09:17;4.17;;;1.80;;
60032;SDS011;45905;50.570;10.428;2022-10-22T05:11:47;1.67;;;1.20;;
60032;SDS011;45905;50.570;10.428;2022-10-22T05:14:18;3.43;;;1.63;;
60032;SDS011;45905;50.570;10.428;2022-10-22T05:16:48;1.73;;;1.10;;
60032;SDS011;45905;50.570;10.428;2022-10-22T05:19:18;7.80;;;1.43;;
60032;SDS011;45905;50.570;10.428;2022-10-22T05:21:55;3.43;;;1.17;;
60032;SDS011;45905;50.570;10.428;2022-10-22T05:24:26;3.10;;;1.10;;
60032;SDS011;45905;50.570;10.428;2022-10-22T05:26:55;5.80;;;1.53;;
60032;SDS011;45905;50.570;10.428;2022-10-22T05:29:24;1.53;;;0.97;;
60032;SDS011;45905;50.570;10.428;2022-10-22T05:31:52;1.20;;;0.90;;
60032;SDS011;45905;50.570;10.428;2022-10-22T05:34:19;2.30;;;1.47;;
60032;SDS011;45905;50.570;10.428;2022-10-22T05:36:46;1.93;;;1.03;;
60032;SDS011;45905;50.570;10.428;2022-10-22T05:39:14;1.57;;;1.10;;
60032;SDS011;45905;50.570;10.428;2022-10-22T05:41:41;2.70;;;1.27;;
60032;SDS011;45905;50.570;10.428;2022-10-22T05:44:09;1.50;;;1.10;;
60032;SDS011;45905;50.570;10.428;2022-10-22T05:46:38;2.70;;;1.23;;
60032;SDS011;45905;50.570;10.428;2022-10-22T05:49:06;1.53;;;0.70;;
60032;SDS011;45905;50.570;10.428;2022-10-22T05:51:34;1.20;;;0.63;;
60032;SDS011;45905;50.570;10.428;2022-10-22T05:54:04;1.67;;;0.80;;
60032;SDS011;45905;50.570;10.428;2022-10-22T05:56:33;1.90;;;1.33;;
60032;SDS011;45905;50.570;10.428;2022-10-22T05:59:02;2.80;;;1.00;;
60032;SDS011;45905;50.570;10.428;2022-10-22T06:01:31;1.23;;;0.90;;
60032;SDS011;45905;50.570;10.428;2022-10-22T06:04:01;1.00;;;0.80;;
60032;SDS011;45905;50.570;10.428;2022-10-22T06:06:36;2.13;;;1.13;;
60032;SDS011;45905;50.570;10.428;2022-10-22T06:11:50;1.43;;;0.90;;
60032;SDS011;45905;50.570;10.428;2022-10-22T06:14:18;1.13;;;1.03;;
60032;SDS011;45905;50.570;10.428;2022-10-22T06:16:46;1.43;;;1.30;;
60032;SDS011;45905;50.570;10.428;2022-10-22T06:19:15;1.33;;;1.10;;
60032;SDS011;45905;50.570;10.428;2022-10-22T06:21:46;1.20;;;0.60;;
60032;SDS011;45905;50.570;10.428;2022-10-22T06:24:13;1.77;;;0.80;;
60032;SDS011;45905;50.570;10.428;2022-10-22T06:26:41;3.83;;;1.40;;
60032;SDS011;45905;50.570;10.428;2022-10-22T06:29:09;1.50;;;1.20;;
60032;SDS011;45905;50.570;10.428;2022-10-22T06:31:36;1.60;;;1.10;;
60032;SDS011;45905;50.570;10.428;2022-10-22T06:34:08;2.87;;;1.80;;
60032;SDS011;45905;50.570;10.428;2022-10-22T06:36:37;1.83;;;1.30;;
60032;SDS011;45905;50.570;10.428;2022-10-22T06:39:10;2.37;;;1.20;;
60032;SDS011;45905;50.570;10.428;2022-10-22T06:41:42;3.83;;;1.40;;
60032;SDS011;45905;50.570;10.428;2022-10-22T06:44:12;1.87;;;1.10;;
60032;SDS011;45905;50.570;10.428;2022-10-22T06:46:47;2.30;;;1.50;;
60032;SDS011;45905;50.570;10.428;2022-10-22T06:49:17;2.60;;;1.40;;
60032;SDS011;45905;50.570;10.428;2022-10-22T06:51:49;1.80;;;1.23;;
60032;SDS011;45905;50.570;10.428;2022-10-22T06:54:20;1.80;;;1.40;;
60032;SDS011;45905;50.570;10.428;2022-10-22T06:56:48;10.63;;;1.20;;
60032;SDS011;45905;50.570;10.428;2022-10-22T06:59:15;1.00;;;0.77;;
60032;SDS011;45905;50.570;10.428;2022-10-22T07:01:42;1.50;;;0.80;;
60032;SDS011;45905;50.570;10.428;2022-10-22T07:04:10;1.50;;;1.10;;
60032;SDS011;45905;50.570;10.428;2022-10-22T07:06:37;1.00;;;0.73;;
60032;SDS011;45905;50.570;10.428;2022-10-22T07:09:04;0.90;;;0.53;;
60032;SDS011;45905;50.570;10.428;2022-10-22T07:11:39;1.00;;;0.60;;
60032;SDS011;45905;50.570;10.428;2022-10-22T07:14:09;1.07;;;0.90;;
60032;SDS011;45905;50.570;10.428;2022-10-22T07:16:37;1.60;;;1.00;;
60032;SDS011;45905;50.570;10.428;2022-10-22T07:19:04;3.10;;;1.10;;
60032;SDS011;45905;50.570;10.428;2022-10-22T07:21:32;2.90;;;1.00;;
60032;SDS011;45905;50.570;10.428;2022-10-22T07:23:59;2.23;;;1.07;;
60032;SDS011;45905;50.570;10.428;2022-10-22T07:26:28;1.30;;;0.77;;
60032;SDS011;45905;50.570;10.428;2022-10-22T07:28:58;1.57;;;0.87;;
60032;SDS011;45905;50.570;10.428;2022-10-22T07:31:26;1.30;;;0.90;;
60032;SDS011;45905;50.570;10.428;2022-10-22T07:33:54;1.30;;;1.10;;
60032;SDS011;45905;50.570;10.428;2022-10-22T07:36:21;1.50;;;1.10;;
60032;SDS011;45905;50.570;10.428;2022-10-22T07:38:54;8.00;;;1.30;;
60032;SDS011;45905;50.570;10.428;2022-10-22T07:41:24;1.63;;;1.23;;
60032;SDS011;45905;50.570;10.428;2022-10-22T07:43:53;1.90;;;1.00;;
60032;SDS011;45905;50.570;10.428;2022-10-22T07:46:21;4.27;;;2.00;;
60032;SDS011;45905;50.570;10.428;2022-10-22T07:48:50;1.47;;;0.73;;
60032;SDS011;45905;50.570;10.428;2022-10-22T07:51:17;1.30;;;0.70;;
60032;SDS011;45905;50.570;10.428;2022-10-22T07:53:44;0.90;;;0.73;;
60032;SDS011;45905;50.570;10.428;2022-10-22T07:56:12;1.03;;;0.63;;
60032;SDS011;45905;50.570;10.428;2022-10-22T07:58:39;3.80;;;1.87;;
60032;SDS011;45905;50.570;10.428;2022-10-22T08:01:07;1.63;;;1.40;;
60032;SDS011;45905;50.570;10.428;2022-10-22T08:03:34;1.40;;;1.30;;
60032;SDS011;45905;50.570;10.428;2022-10-22T08:06:01;1.20;;;1.00;;
60032;SDS011;45905;50.570;10.428;2022-10-22T08:08:28;1.27;;;0.70;;
60032;SDS011;45905;50.570;10.428;2022-10-22T08:10:57;2.70;;;1.00;;
60032;SDS011;45905;50.570;10.428;2022-10-22T08:13:27;1.33;;;0.80;;
60032;SDS011;45905;50.570;10.428;2022-10-22T08:15:59;1.63;;;0.90;;
60032;SDS011;45905;50.570;10.428;2022-10-22T08:18:27;2.10;;;1.50;;
60032;SDS011;45905;50.570;10.428;2022-10-22T08:20:55;2.40;;;1.43;;
60032;SDS011;45905;50.570;10.428;2022-10-22T08:23:23;3.97;;;1.50;;
60032;SDS011;45905;50.570;10.428;2022-10-22T08:25:54;4.30;;;3.13;;
60032;SDS011;45905;50.570;10.428;2022-10-22T08:28:23;43.57;;;9.13;;
60032;SDS011;45905;50.570;10.428;2022-10-22T08:30:50;6.57;;;2.03;;
60032;SDS011;45905;50.570;10.428;2022-10-22T08:33:17;12.27;;;3.90;;
60032;SDS011;45905;50.570;10.428;2022-10-22T08:35:49;2.47;;;1.60;;
60032;SDS011;45905;50.570;10.428;2022-10-22T08:38:17;2.53;;;1.30;;
60032;SDS011;45905;50.570;10.428;2022-10-22T08:40:46;2.00;;;1.20;;
60032;SDS011;45905;50.570;10.428;2022-10-22T08:48:55;8.80;;;2.73;;
60032;SDS011;45905;50.570;10.428;2022-10-22T08:51:29;8.80;;;4.70;;
60032;SDS011;45905;50.570;10.428;2022-10-22T08:54:13;6.50;;;2.40;;
60032;SDS011;45905;50.570;10.428;2022-10-22T08:56:52;3.23;;;1.77;;
60032;SDS011;45905;50.570;10.428;2022-10-22T08:59:56;1.80;;;1.03;;
60032;SDS011;45905;50.570;10.428;2022-10-22T09:08:28;2.57;;;1.27;;
60032;SDS011;45905;50.570;10.428;2022-10-22T09:11:04;7.17;;;2.50;;
60032;SDS011;45905;50.570;10.428;2022-10-22T09:13:44;2.50;;;1.57;;
60032;SDS011;45905;50.570;10.428;2022-10-22T09:16:24;1.50;;;1.10;;
60032;SDS011;45905;50.570;10.428;2022-10-22T09:22:33;1.53;;;1.40;;
60032;SDS011;45905;50.570;10.428;2022-10-22T09:25:35;1.73;;;1.43;;
60032;SDS011;45905;50.570;10.428;2022-10-22T09:28:04;5.30;;;1.50;;
60032;SDS011;45905;50.570;10.428;2022-10-22T09:30:35;1.27;;;1.03;;
60032;SDS011;45905;50.570;10.428;2022-10-22T09:33:12;1.20;;;1.10;;
60032;SDS011;45905;50.570;10.428;2022-10-22T09:36:02;1.73;;;0.97;;
60032;SDS011;45905;50.570;10.428;2022-10-22T09:38:33;1.17;;;0.70;;
60032;SDS011;45905;50.570;10.428;2022-10-22T09:41:07;4.17;;;2.00;;
60032;SDS011;45905;50.570;10.428;2022-10-22T09:43:34;3.47;;;1.33;;
60032;SDS011;45905;50.570;10.428;2022-10-22T09:46:05;1.30;;;0.80;;
60032;SDS011;45905;50.570;10.428;2022-10-22T09:48:43;7.80;;;2.40;;
60032;SDS011;45905;50.570;10.428;2022-10-22T09:51:49;5.53;;;1.80;;
60032;SDS011;45905;50.570;10.428;2022-10-22T09:54:24;3.23;;;2.93;;
60032;SDS011;45905;50.570;10.428;2022-10-22T09:57:14;1.23;;;1.13;;
60032;SDS011;45905;50.570;10.428;2022-10-22T09:59:48;10.47;;;1.60;;
60032;SDS011;45905;50.570;10.428;2022-10-22T10:02:19;2.43;;;1.40;;
60032;SDS011;45905;50.570;10.428;2022-10-22T10:05:05;7.83;;;4.23;;
60032;SDS011;45905;50.570;10.428;2022-10-22T10:07:34;3.60;;;1.90;;
60032;SDS011;45905;50.570;10.428;2022-10-22T10:10:05;6.10;;;2.93;;
60032;SDS011;45905;50.570;10.428;2022-10-22T10:16:06;2.13;;;1.70;;
60032;SDS011;45905;50.570;10.428;2022-10-22T10:21:56;1.57;;;1.37;;
60032;SDS011;45905;50.570;10.428;2022-10-22T10:24:47;1.43;;;1.30;;
60032;SDS011;45905;50.570;10.428;2022-10-22T10:27:48;3.37;;;2.40;;
60032;SDS011;45905;50.570;10.428;2022-10-22T10:30:40;12.13;;;4.10;;
60032;SDS011;45905;50.570;10.428;2022-10-22T10:42:43;5.03;;;2.50;;
60032;SDS011;45905;50.570;10.428;2022-10-22T11:01:51;4.43;;;1.70;;
60032;SDS011;45905;50.570;10.428;2022-10-22T11:07:26;3.13;;;2.23;;
60032;SDS011;45905;50.570;10.428;2022-10-22T11:19:06;8.23;;;1.60;;
60032;SDS011;45905;50.570;10.428;2022-10-22T11:22:20;5.63;;;2.30;;
60032;SDS011;45905;50.570;10.428;2022-10-22T11:25:03;4.83;;;2.10;;
60032;SDS011;45905;50.570;10.428;2022-10-22T11:30:36;1.70;;;1.40;;
60032;SDS011;45905;50.570;10.428;2022-10-22T11:33:10;1.43;;;1.30;;
60032;SDS011;45905;50.570;10.428;2022-10-22T11:35:44;5.30;;;1.93;;
60032;SDS011;45905;50.570;10.428;2022-10-22T11:38:17;1.87;;;1.50;;
60032;SDS011;45905;50.570;10.428;2022-10-22T11:43:35;2.53;;;1.23;;
60032;SDS011;45905;50.570;10.428;2022-10-22T11:54:52;2.53;;;1.97;;
60032;SDS011;45905;50.570;10.428;2022-10-22T11:57:27;1.77;;;1.63;;
60032;SDS011;45905;50.570;10.428;2022-10-22T12:00:31;3.93;;;1.70;;
60032;SDS011;45905;50.570;10.428;2022-10-22T12:03:23;2.43;;;1.20;;
60032;SDS011;45905;50.570;10.428;2022-10-22T12:07:47;5.60;;;1.67;;
60032;SDS011;45905;50.570;10.428;2022-10-22T12:10:03;3.60;;;1.30;;
60032;SDS011;45905;50.570;10.428;2022-10-22T12:12:43;1.30;;;1.20;;
60032;SDS011;45905;50.570;10.428;2022-10-22T12:15:25;1.30;;;1.20;;
60032;SDS011;45905;50.570;10.428;2022-10-22T12:18:02;2.80;;;1.57;;
60032;SDS011;45905;50.570;10.428;2022-10-22T12:20:31;2.23;;;1.17;;
60032;SDS011;45905;50.570;10.428;2022-10-22T12:22:58;1.40;;;1.27;;
60032;SDS011;45905;50.570;10.428;2022-10-22T12:25:29;2.30;;;1.33;;
60032;SDS011;45905;50.570;10.428;2022-10-22T12:28:01;2.03;;;1.33;;
60032;SDS011;45905;50.570;10.428;2022-10-22T12:30:29;2.10;;;1.13;;
60032;SDS011;45905;50.570;10.428;2022-10-22T12:33:04;7.63;;;1.67;;
60032;SDS011;45905;50.570;10.428;2022-10-22T12:35:43;5.20;;;1.60;;
60032;SDS011;45905;50.570;10.428;2022-10-22T12:38:17;1.20;;;1.10;;
60032;SDS011;45905;50.570;10.428;2022-10-22T12:40:49;1.50;;;1.00;;
60032;SDS011;45905;50.570;10.428;2022-10-22T12:43:23;2.93;;;1.20;;
60032;SDS011;45905;50.570;10.428;2022-10-22T12:45:54;4.40;;;1.73;;
60032;SDS011;45905;50.570;10.428;2022-10-22T12:48:29;2.00;;;1.20;;
60032;SDS011;45905;50.570;10.428;2022-10-22T12:51:02;4.40;;;1.17;;
60032;SDS011;45905;50.570;10.428;2022-10-22T12:53:37;5.17;;;2.00;;
60032;SDS011;45905;50.570;10.428;2022-10-22T12:56:12;1.77;;;1.10;;
60032;SDS011;45905;50.570;10.428;2022-10-22T12:58:45;1.40;;;1.13;;
60032;SDS011;45905;50.570;10.428;2022-10-22T13:01:41;3.87;;;1.10;;
60032;SDS011;45905;50.570;10.428;2022-10-22T13:07:04;2.40;;;1.50;;
60032;SDS011;45905;50.570;10.428;2022-10-22T13:09:47;2.53;;;1.53;;
60032;SDS011;45905;50.570;10.428;2022-10-22T13:12:35;4.90;;;1.33;;
60032;SDS011;45905;50.570;10.428;2022-10-22T13:18:05;5.63;;;1.10;;
60032;SDS011;45905;50.570;10.428;2022-10-22T13:20:58;1.40;;;1.20;;
60032;SDS011;45905;50.570;10.428;2022-10-22T13:23:30;6.80;;;1.40;;
60032;SDS011;45905;50.570;10.428;2022-10-22T13:26:03;3.63;;;1.03;;
60032;SDS011;45905;50.570;10.428;2022-10-22T13:28:42;1.50;;;1.00;;
60032;SDS011;45905;50.570;10.428;2022-10-22T13:31:19;4.70;;;1.17;;
60032;SDS011;45905;50.570;10.428;2022-10-22T13:33:56;1.40;;;0.80;;
60032;SDS011;45905;50.570;10.428;2022-10-22T13:36:37;6.70;;;1.27;;
60032;SDS011;45905;50.570;10.428;2022-10-22T13:39:05;2.70;;;1.23;;
60032;SDS011;45905;50.570;10.428;2022-10-22T13:41:37;6.83;;;1.13;;
60032;SDS011;45905;50.570;10.428;2022-10-22T13:44:04;1.73;;;1.10;;
60032;SDS011;45905;50.570;10.428;2022-10-22T13:46:31;3.77;;;1.40;;
60032;SDS011;45905;50.570;10.428;2022-10-22T13:49:03;6.37;;;1.77;;
60032;SDS011;45905;50.570;10.428;2022-10-22T13:51:34;5.87;;;1.10;;
60032;SDS011;45905;50.570;10.428;2022-10-22T13:54:01;2.90;;;1.50;;
60032;SDS011;45905;50.570;10.428;2022-10-22T13:56:32;1.90;;;1.07;;
60032;SDS011;45905;50.570;10.428;2022-10-22T13:58:59;1.87;;;1.13;;
60032;SDS011;45905;50.570;10.428;2022-10-22T14:01:26;3.00;;;1.30;;
60032;SDS011;45905;50.570;10.428;2022-10-22T14:03:55;3.60;;;1.30;;
60032;SDS011;45905;50.570;10.428;2022-10-22T14:06:28;8.03;;;1.93;;
60032;SDS011;45905;50.570;10.428;2022-10-22T14:08:58;2.37;;;1.40;;
60032;SDS011;45905;50.570;10.428;2022-10-22T14:11:34;3.90;;;0.93;;
60032;SDS011;45905;50.570;10.428;2022-10-22T14:14:01;1.10;;;0.83;;
60032;SDS011;45905;50.570;10.428;2022-10-22T14:16:30;2.90;;;1.10;;
60032;SDS011;45905;50.570;10.428;2022-10-22T14:18:59;3.60;;;1.10;;
60032;SDS011;45905;50.570;10.428;2022-10-22T14:21:32;2.30;;;1.23;;
60032;SDS011;45905;50.570;10.428;2022-10-22T14:24:03;6.03;;;1.20;;
60032;SDS011;45905;50.570;10.428;2022-10-22T14:26:36;2.30;;;0.90;;
60032;SDS011;45905;50.570;10.428;2022-10-22T14:29:03;1.10;;;0.80;;
60032;SDS011;45905;50.570;10.428;2022-10-22T14:31:35;2.03;;;1.00;;
60032;SDS011;45905;50.570;10.428;2022-10-22T14:34:05;1.27;;;0.90;;
60032;SDS011;45905;50.570;10.428;2022-10-22T14:36:32;2.97;;;1.30;;
60032;SDS011;45905;50.570;10.428;2022-10-22T14:38:59;3.93;;;1.17;;
60032;SDS011;45905;50.570;10.428;2022-10-22T14:41:26;5.53;;;0.90;;
60032;SDS011;45905;50.570;10.428;2022-10-22T14:43:55;7.00;;;1.23;;
60032;SDS011;45905;50.570;10.428;2022-10-22T14:46:24;1.40;;;0.90;;
60032;SDS011;45905;50.570;10.428;2022-10-22T14:48:51;1.20;;;0.90;;
60032;SDS011;45905;50.570;10.428;2022-10-22T14:51:19;1.90;;;0.67;;
60032;SDS011;45905;50.570;10.428;2022-10-22T14:53:48;14.83;;;0.90;;
60032;SDS011;45905;50.570;10.428;2022-10-22T14:56:16;1.57;;;0.73;;
60032;SDS011;45905;50.570;10.428;2022-10-22T14:58:48;3.90;;;1.23;;
60032;SDS011;45905;50.570;10.428;2022-10-22T15:01:16;1.53;;;1.43;;
60032;SDS011;45905;50.570;10.428;2022-10-22T15:03:43;2.80;;;1.10;;
60032;SDS011;45905;50.570;10.428;2022-10-22T15:06:10;1.30;;;1.00;;
60032;SDS011;45905;50.570;10.428;2022-10-22T15:08:37;1.77;;;0.70;;
60032;SDS011;45905;50.570;10.428;2022-10-22T15:11:06;1.10;;;0.70;;
60032;SDS011;45905;50.570;10.428;2022-10-22T15:13:36;1.90;;;1.37;;
60032;SDS011;45905;50.570;10.428;2022-10-22T15:16:06;6.93;;;1.00;;
60032;SDS011;45905;50.570;10.428;2022-10-22T15:18:36;2.90;;;0.70;;
60032;SDS011;45905;50.570;10.428;2022-10-22T15:21:21;7.60;;;1.30;;
60032;SDS011;45905;50.570;10.428;2022-10-22T15:23:49;0.83;;;0.50;;
60032;SDS011;45905;50.570;10.428;2022-10-22T15:26:16;2.00;;;0.97;;
60032;SDS011;45905;50.570;10.428;2022-10-22T15:28:43;2.87;;;0.77;;
60032;SDS011;45905;50.570;10.428;2022-10-22T15:31:11;1.67;;;1.00;;
60032;SDS011;45905;50.570;10.428;2022-10-22T15:33:40;1.63;;;0.80;;
60032;SDS011;45905;50.570;10.428;2022-10-22T15:36:13;0.90;;;0.47;;
60032;SDS011;45905;50.570;10.428;2022-10-22T15:38:41;6.93;;;1.17;;
60032;SDS011;45905;50.570;10.428;2022-10-22T15:41:08;1.20;;;0.60;;
60032;SDS011;45905;50.570;10.428;2022-10-22T15:43:38;3.80;;;1.00;;
60032;SDS011;45905;50.570;10.428;2022-10-22T15:46:13;1.63;;;1.07;;
60032;SDS011;45905;50.570;10.428;2022-10-22T15:48:44;0.90;;;0.50;;
60032;SDS011;45905;50.570;10.428;2022-10-22T15:51:12;6.57;;;1.90;;
60032;SDS011;45905;50.570;10.428;2022-10-22T15:53:42;7.97;;;5.07;;
60032;SDS011;45905;50.570;10.428;2022-10-22T15:56:16;19.40;;;5.70;;
60032;SDS011;45905;50.570;10.428;2022-10-22T15:58:44;8.60;;;1.33;;
60032;SDS011;45905;50.570;10.428;2022-10-22T16:01:12;4.00;;;1.40;;
60032;SDS011;45905;50.570;10.428;2022-10-22T16:03:40;4.97;;;1.37;;
60032;SDS011;45905;50.570;10.428;2022-10-22T16:06:07;8.70;;;3.70;;
60032;SDS011;45905;50.570;10.428;2022-10-22T16:08:35;14.00;;;8.07;;
60032;SDS011;45905;50.570;10.428;2022-10-22T16:11:03;3.63;;;2.63;;
60032;SDS011;45905;50.570;10.428;2022-10-22T16:13:30;1.77;;;1.50;;
60032;SDS011;45905;50.570;10.428;2022-10-22T16:15:57;4.63;;;1.00;;
60032;SDS011;45905;50.570;10.428;2022-10-22T16:18:24;5.70;;;1.20;;
60032;SDS011;45905;50.570;10.428;2022-10-22T16:20:51;3.50;;;1.70;;
60032;SDS011;45905;50.570;10.428;2022-10-22T16:23:18;2.10;;;1.37;;
60032;SDS011;45905;50.570;10.428;2022-10-22T16:25:46;3.20;;;1.40;;
60032;SDS011;45905;50.570;10.428;2022-10-22T16:28:13;6.23;;;2.80;;
60032;SDS011;45905;50.570;10.428;2022-10-22T16:30:40;3.83;;;1.53;;
60032;SDS011;45905;50.570;10.428;2022-10-22T16:33:07;3.30;;;2.30;;
60032;SDS011;45905;50.570;10.428;2022-10-22T16:35:40;3.40;;;2.37;;
60032;SDS011;45905;50.570;10.428;2022-10-22T16:38:09;4.17;;;2.30;;
60032;SDS011;45905;50.570;10.428;2022-10-22T16:40:37;4.20;;;2.20;;
60032;SDS011;45905;50.570;10.428;2022-10-22T16:43:05;5.57;;;1.57;;
60032;SDS011;45905;50.570;10.428;2022-10-22T16:45:32;3.53;;;1.43;;
60032;SDS011;45905;50.570;10.428;2022-10-22T16:47:59;11.80;;;2.80;;
60032;SDS011;45905;50.570;10.428;2022-10-22T16:50:26;5.40;;;3.03;;